createdAt,value
2022-11-16T00:01:01.948Z,8.17
2022-11-16T00:03:31.332Z,8.10
2022-11-16T00:06:00.302Z,9.07
2022-11-16T00:08:30.061Z,8.53
2022-11-16T00:11:05.994Z,7.60
2022-11-16T00:13:34.492Z,7.67
2022-11-16T00:16:04.802Z,8.50
2022-11-16T00:18:33.252Z,8.17
2022-11-16T00:21:01.731Z,8.40
2022-11-16T00:23:29.758Z,8.27
2022-11-16T00:26:05.109Z,8.47
2022-11-16T00:28:33.524Z,8.60
2022-11-16T00:31:04.792Z,8.50
2022-11-16T00:33:32.963Z,8.20
2022-11-16T00:36:02.123Z,7.60
2022-11-16T00:38:30.320Z,7.87
2022-11-16T00:40:58.483Z,8.73
2022-11-16T00:43:26.860Z,8.07
2022-11-16T00:45:55.382Z,7.73
2022-11-16T00:48:24.748Z,8.70
2022-11-16T00:50:53.169Z,8.27
2022-11-16T00:53:21.914Z,7.60
2022-11-16T00:55:50.186Z,7.90
2022-11-16T00:58:20.496Z,8.57
2022-11-16T01:00:54.677Z,8.40
2022-11-16T01:03:26.752Z,8.90
2022-11-16T01:05:54.828Z,8.47
2022-11-16T01:08:22.893Z,8.80
2022-11-16T01:10:50.961Z,8.17
2022-11-16T01:13:17.974Z,7.80
2022-11-16T01:15:49.186Z,7.60
2022-11-16T01:18:17.300Z,8.40
2022-11-16T01:20:46.791Z,8.87
2022-11-16T01:23:14.845Z,7.83
2022-11-16T01:25:42.915Z,7.83
2022-11-16T01:28:10.928Z,8.07
2022-11-16T01:30:49.691Z,8.03
2022-11-16T01:33:17.900Z,7.90
2022-11-16T01:35:47.358Z,7.73
2022-11-16T01:38:16.814Z,6.93
2022-11-16T01:40:44.932Z,7.33
2022-11-16T01:43:17.689Z,7.10
2022-11-16T01:45:47.193Z,7.23
2022-11-16T01:48:18.503Z,6.80
2022-11-16T01:50:48.514Z,7.10
2022-11-16T01:53:17.362Z,6.83
2022-11-16T01:55:53.305Z,6.93
2022-11-16T01:58:29.386Z,6.07
2022-11-16T02:01:03.697Z,5.70
2022-11-16T02:03:40.167Z,5.73
2022-11-16T02:06:30.113Z,4.67
2022-11-16T02:09:50.937Z,3.60
2022-11-16T02:12:33.173Z,2.97
2022-11-16T02:15:09.946Z,2.90
2022-11-16T02:17:41.964Z,2.40
2022-11-16T02:21:06.418Z,2.50
2022-11-16T02:24:11.021Z,2.33
2022-11-16T02:26:59.709Z,2.10
2022-11-16T02:29:33.947Z,2.07
2022-11-16T02:32:04.974Z,2.10
2022-11-16T02:34:35.221Z,2.13
2022-11-16T02:37:06.418Z,2.37
2022-11-16T02:39:35.866Z,2.37
2022-11-16T02:42:06.032Z,2.20
2022-11-16T02:44:36.919Z,2.67
2022-11-16T02:47:07.299Z,2.70
2022-11-16T02:49:39.089Z,2.93
2022-11-16T02:52:07.271Z,3.07
2022-11-16T02:54:35.597Z,2.63
2022-11-16T02:57:27.354Z,2.87
2022-11-16T02:59:57.777Z,2.93
2022-11-16T03:02:31.031Z,2.67
2022-11-16T03:05:04.298Z,2.73
2022-11-16T03:07:47.372Z,2.60
2022-11-16T03:10:37.257Z,2.60
2022-11-16T03:13:07.395Z,2.80
2022-11-16T03:15:37.864Z,2.77
2022-11-16T03:18:06.890Z,2.70
2022-11-16T03:20:36.301Z,2.63
2022-11-16T03:23:07.173Z,3.03
2022-11-16T03:25:38.645Z,2.70
2022-11-16T03:28:09.999Z,2.83
2022-11-16T03:30:42.228Z,2.57
2022-11-16T03:33:15.423Z,2.90
2022-11-16T03:35:49.352Z,2.60
2022-11-16T03:38:19.667Z,2.97
2022-11-16T03:40:48.830Z,3.00
2022-11-16T03:43:18.811Z,3.50
2022-11-16T03:45:48.706Z,3.53
2022-11-16T03:48:16.803Z,3.50
2022-11-16T03:50:44.967Z,3.30
2022-11-16T03:53:14.441Z,3.30
2022-11-16T03:55:47.050Z,3.53
2022-11-16T03:58:18.629Z,3.97
2022-11-16T04:00:48.263Z,3.87
2022-11-16T04:03:16.448Z,3.47
2022-11-16T04:06:02.020Z,3.87
2022-11-16T04:08:47.498Z,4.00
2022-11-16T04:11:33.336Z,3.93
2022-11-16T04:14:19.464Z,3.40
2022-11-16T04:17:06.067Z,3.70
2022-11-16T04:19:56.733Z,3.50
2022-11-16T04:22:48.556Z,3.43
2022-11-16T04:25:19.516Z,3.80
2022-11-16T04:28:05.632Z,3.37
2022-11-16T04:30:56.367Z,3.23
2022-11-16T04:33:43.199Z,3.93
2022-11-16T04:36:28.752Z,3.87
2022-11-16T04:38:57.001Z,3.17
2022-11-16T04:41:42.630Z,2.97
2022-11-16T04:44:10.898Z,2.93
2022-11-16T04:46:56.572Z,2.87
2022-11-16T04:49:26.019Z,2.40
2022-11-16T04:51:54.723Z,2.37
2022-11-16T04:54:23.413Z,2.57
2022-11-16T04:56:51.543Z,2.23
2022-11-16T04:59:19.671Z,2.33
2022-11-16T05:02:04.964Z,2.13
2022-11-16T05:04:35.207Z,2.17
2022-11-16T05:07:03.684Z,2.17
2022-11-16T05:09:31.902Z,1.73
2022-11-16T05:11:59.971Z,1.50
2022-11-16T05:14:28.579Z,1.30
2022-11-16T05:16:56.822Z,1.50
2022-11-16T05:19:42.398Z,1.33
2022-11-16T05:22:12.018Z,1.43
2022-11-16T05:24:40.267Z,1.17
2022-11-16T05:27:09.947Z,1.37
2022-11-16T05:29:39.562Z,1.50
2022-11-16T05:32:08.515Z,1.30
2022-11-16T05:34:36.911Z,1.50
2022-11-16T05:37:06.108Z,1.50
2022-11-16T05:39:36.328Z,1.37
2022-11-16T05:42:04.959Z,1.70
2022-11-16T05:44:34.134Z,1.53
2022-11-16T05:47:02.495Z,1.40
2022-11-16T05:49:30.580Z,1.50
2022-11-16T05:51:59.621Z,1.53
2022-11-16T05:54:28.436Z,1.40
2022-11-16T05:56:58.433Z,1.73
2022-11-16T05:59:27.766Z,1.30
2022-11-16T06:01:57.932Z,1.80
2022-11-16T06:04:26.565Z,1.87
2022-11-16T06:06:55.561Z,1.73
2022-11-16T06:09:29.878Z,2.00
2022-11-16T06:12:03.979Z,1.70
2022-11-16T06:14:32.154Z,1.80
2022-11-16T06:17:00.504Z,1.80
2022-11-16T06:19:32.577Z,1.80
2022-11-16T06:22:00.866Z,1.90
2022-11-16T06:24:30.793Z,2.00
2022-11-16T06:26:59.911Z,2.33
2022-11-16T06:29:30.506Z,1.77
2022-11-16T06:31:58.816Z,1.80
2022-11-16T06:34:26.837Z,2.00
2022-11-16T06:36:55.986Z,2.20
2022-11-16T06:39:24.467Z,2.40
2022-11-16T06:41:53.178Z,2.00
2022-11-16T06:44:21.431Z,2.30
2022-11-16T06:46:58.459Z,2.40
2022-11-16T06:49:26.612Z,2.40
2022-11-16T06:52:00.276Z,2.23
2022-11-16T06:54:29.005Z,2.10
2022-11-16T06:56:57.067Z,2.20
2022-11-16T06:59:25.230Z,2.10
2022-11-16T07:01:53.413Z,2.10
2022-11-16T07:04:22.928Z,2.20
2022-11-16T07:06:56.050Z,2.33
2022-11-16T07:09:24.288Z,2.13
2022-11-16T07:11:52.784Z,2.37
2022-11-16T07:14:21.683Z,2.10
2022-11-16T07:16:56.337Z,2.47
2022-11-16T07:19:28.584Z,2.10
2022-11-16T07:21:56.953Z,2.07
2022-11-16T07:24:25.302Z,2.27
2022-11-16T07:26:53.536Z,2.30
2022-11-16T07:29:25.329Z,1.83
2022-11-16T07:32:11.556Z,2.50
2022-11-16T07:35:13.080Z,2.70
2022-11-16T07:37:41.433Z,2.77
2022-11-16T07:40:10.666Z,2.73
2022-11-16T07:42:39.906Z,2.70
2022-11-16T07:45:25.076Z,2.70
2022-11-16T07:47:58.347Z,2.60
2022-11-16T07:50:46.245Z,2.50
2022-11-16T07:53:14.808Z,2.30
2022-11-16T07:55:42.846Z,2.03
2022-11-16T07:58:11.230Z,2.50
2022-11-16T08:00:40.153Z,2.63
2022-11-16T08:03:18.133Z,2.53
2022-11-16T08:05:59.552Z,2.17
2022-11-16T08:08:27.895Z,2.27
2022-11-16T08:11:00.803Z,2.10
2022-11-16T08:13:31.914Z,2.40
2022-11-16T08:16:01.359Z,2.47
2022-11-16T08:18:30.050Z,2.00
2022-11-16T08:21:01.769Z,2.33
2022-11-16T08:23:30.080Z,2.20
2022-11-16T08:25:59.415Z,2.23
2022-11-16T08:28:28.579Z,2.17
2022-11-16T08:30:57.116Z,2.20
2022-11-16T08:33:25.640Z,2.00
2022-11-16T08:35:55.366Z,2.40
2022-11-16T08:38:25.074Z,2.20
2022-11-16T08:40:56.707Z,1.90
2022-11-16T08:43:26.683Z,1.80
2022-11-16T08:45:54.769Z,2.30
2022-11-16T08:48:23.259Z,2.53
2022-11-16T08:51:15.962Z,1.73
2022-11-16T08:53:42.665Z,2.10
2022-11-16T08:56:13.328Z,2.30
2022-11-16T08:58:43.746Z,2.03
2022-11-16T09:01:13.950Z,2.03
2022-11-16T09:03:42.796Z,1.90
2022-11-16T09:06:11.764Z,2.40
2022-11-16T09:08:44.517Z,2.10
2022-11-16T09:11:18.004Z,2.40
2022-11-16T09:13:46.805Z,1.83
2022-11-16T09:16:16.606Z,2.33
2022-11-16T09:18:46.352Z,2.10
2022-11-16T09:21:18.096Z,2.70
2022-11-16T09:23:48.043Z,1.80
2022-11-16T09:26:20.551Z,1.90
2022-11-16T09:28:49.100Z,1.93
2022-11-16T09:31:22.954Z,1.80
2022-11-16T09:33:51.795Z,1.93
2022-11-16T09:36:20.655Z,1.97
2022-11-16T09:42:01.587Z,2.20
2022-11-16T09:44:55.811Z,1.70
2022-11-16T09:47:26.437Z,3.10
2022-11-16T09:50:02.957Z,1.90
2022-11-16T09:52:35.700Z,1.60
2022-11-16T09:55:21.647Z,2.07
2022-11-16T09:57:50.498Z,1.60
2022-11-16T10:00:21.914Z,2.37
2022-11-16T10:02:55.372Z,2.67
2022-11-16T10:05:26.609Z,2.33
2022-11-16T10:08:00.401Z,2.03
2022-11-16T10:10:36.077Z,2.33
2022-11-16T10:13:11.771Z,2.13
2022-11-16T10:15:48.823Z,1.93
2022-11-16T10:18:25.751Z,1.80
2022-11-16T10:21:25.122Z,2.27
2022-11-16T10:24:06.197Z,2.87
2022-11-16T10:26:44.421Z,2.40
2022-11-16T10:29:26.178Z,2.23
2022-11-16T10:32:05.080Z,2.00
2022-11-16T10:34:52.466Z,2.00
2022-11-16T10:37:21.689Z,1.73
2022-11-16T10:39:51.349Z,1.93
2022-11-16T10:42:25.361Z,2.10
2022-11-16T10:44:57.627Z,2.00
2022-11-16T10:47:33.554Z,1.40
2022-11-16T10:50:05.153Z,2.20
2022-11-16T10:52:33.248Z,1.90
2022-11-16T10:55:01.307Z,2.00
2022-11-16T10:57:55.612Z,1.77
2022-11-16T11:00:38.129Z,1.80
2022-11-16T11:03:06.653Z,2.00
2022-11-16T11:05:36.383Z,1.73
2022-11-16T11:08:06.612Z,1.90
2022-11-16T11:10:36.077Z,2.00
2022-11-16T11:13:11.161Z,1.63
2022-11-16T11:15:40.627Z,1.77
2022-11-16T11:18:26.150Z,1.80
2022-11-16T11:21:06.743Z,2.07
2022-11-16T11:23:42.669Z,1.70
2022-11-16T11:26:34.694Z,1.47
2022-11-16T11:29:23.602Z,1.63
2022-11-16T11:31:52.758Z,1.90
2022-11-16T11:34:23.357Z,2.20
2022-11-16T11:36:54.840Z,1.50
2022-11-16T11:39:34.223Z,2.13
2022-11-16T11:42:05.623Z,2.00
2022-11-16T11:44:42.494Z,1.77
2022-11-16T11:47:56.116Z,1.70
2022-11-16T11:50:17.740Z,2.00
2022-11-16T11:52:53.315Z,1.60
2022-11-16T11:55:21.420Z,1.37
2022-11-16T11:57:54.118Z,1.50
2022-11-16T12:00:26.109Z,1.63
2022-11-16T12:03:35.801Z,1.37
2022-11-16T12:06:10.067Z,1.17
2022-11-16T12:09:04.470Z,1.23
2022-11-16T12:11:43.784Z,1.60
2022-11-16T12:14:21.337Z,1.97
2022-11-16T12:16:58.377Z,1.53
2022-11-16T12:19:44.293Z,1.40
2022-11-16T12:22:23.244Z,1.40
2022-11-16T12:25:00.298Z,1.40
2022-11-16T12:27:35.663Z,1.10
2022-11-16T12:30:10.003Z,1.53
2022-11-16T12:32:54.517Z,1.87
2022-11-16T12:35:49.072Z,1.50
2022-11-16T12:38:40.622Z,1.60
2022-11-16T12:41:21.667Z,1.10
2022-11-16T12:43:54.272Z,1.23
2022-11-16T12:46:31.730Z,1.57
2022-11-16T12:49:31.617Z,1.70
2022-11-16T12:52:09.030Z,1.50
2022-11-16T12:55:24.827Z,1.10
2022-11-16T12:57:50.879Z,1.53
2022-11-16T13:00:20.147Z,1.40
2022-11-16T13:03:01.741Z,1.60
2022-11-16T13:05:41.644Z,1.47
2022-11-16T13:08:13.565Z,1.23
2022-11-16T13:10:45.530Z,1.60
2022-11-16T13:13:35.513Z,1.50
2022-11-16T13:16:06.568Z,1.77
2022-11-16T13:18:38.282Z,2.30
2022-11-16T13:21:14.591Z,2.60
2022-11-16T13:23:51.149Z,1.60
2022-11-16T13:26:26.442Z,1.63
2022-11-16T13:29:04.169Z,2.17
2022-11-16T13:31:36.237Z,1.80
2022-11-16T13:34:06.787Z,1.80
2022-11-16T13:36:47.796Z,2.40
2022-11-16T13:39:22.182Z,2.00
2022-11-16T13:41:51.752Z,2.00
2022-11-16T13:44:26.548Z,1.97
2022-11-16T13:46:57.457Z,1.60
2022-11-16T13:49:29.930Z,1.80
2022-11-16T13:52:17.211Z,1.50
2022-11-16T13:54:50.927Z,1.67
2022-11-16T13:57:25.074Z,2.00
2022-11-16T13:59:57.990Z,1.60
2022-11-16T14:02:31.954Z,2.80
2022-11-16T14:05:01.509Z,1.83
2022-11-16T14:07:43.310Z,2.33
2022-11-16T14:10:12.424Z,2.03
2022-11-16T14:12:58.751Z,2.07
2022-11-16T14:15:29.734Z,1.90
2022-11-16T14:18:00.470Z,1.83
2022-11-16T14:20:41.765Z,1.33
2022-11-16T14:23:37.870Z,1.57
2022-11-16T14:26:14.749Z,1.40
2022-11-16T14:28:57.691Z,1.87
2022-11-16T14:31:27.267Z,1.80
2022-11-16T14:33:57.737Z,1.93
2022-11-16T14:36:38.431Z,1.73
2022-11-16T14:39:27.992Z,1.83
2022-11-16T14:41:58.229Z,1.63
2022-11-16T14:44:29.115Z,2.43
2022-11-16T14:46:57.823Z,2.03
2022-11-16T14:49:27.387Z,1.80
2022-11-16T14:51:58.304Z,2.23
2022-11-16T14:54:33.922Z,1.83
2022-11-16T14:57:03.530Z,1.73
2022-11-16T14:59:32.728Z,1.80
2022-11-16T15:02:05.787Z,2.37
2022-11-16T15:04:39.082Z,1.80
2022-11-16T15:07:07.744Z,1.90
2022-11-16T15:09:40.460Z,2.10
2022-11-16T15:12:34.528Z,2.10
2022-11-16T15:15:06.811Z,2.03
2022-11-16T15:17:35.838Z,2.30
2022-11-16T15:20:17.082Z,1.97
2022-11-16T15:22:49.642Z,2.33
2022-11-16T15:25:28.687Z,1.40
2022-11-16T15:27:57.656Z,1.63
2022-11-16T15:30:28.985Z,1.90
2022-11-16T15:33:02.168Z,2.07
2022-11-16T15:35:32.275Z,1.87
2022-11-16T15:38:06.358Z,1.90
2022-11-16T15:40:41.200Z,2.30
2022-11-16T15:43:11.976Z,1.77
2022-11-16T15:45:40.519Z,1.80
2022-11-16T15:48:08.840Z,2.10
2022-11-16T15:50:37.399Z,1.70
2022-11-16T15:53:05.750Z,1.37
2022-11-16T15:55:35.793Z,2.33
2022-11-16T15:58:08.541Z,2.53
2022-11-16T16:00:37.951Z,2.23
2022-11-16T16:03:08.852Z,2.17
2022-11-16T16:05:39.385Z,2.00
2022-11-16T16:08:30.379Z,2.27
2022-11-16T16:11:00.196Z,1.87
2022-11-16T16:13:32.564Z,1.83
2022-11-16T16:16:29.513Z,1.70
2022-11-16T16:19:04.977Z,1.90
2022-11-16T16:21:44.660Z,1.30
2022-11-16T16:24:36.978Z,1.40
2022-11-16T16:27:14.173Z,1.30
2022-11-16T16:29:44.118Z,1.67
2022-11-16T16:32:22.651Z,1.40
2022-11-16T16:34:50.981Z,1.10
2022-11-16T16:37:19.461Z,1.40
2022-11-16T16:39:47.635Z,1.43
2022-11-16T16:42:17.185Z,1.53
2022-11-16T16:44:48.264Z,1.53
2022-11-16T16:47:17.254Z,1.93
2022-11-16T16:49:46.472Z,1.97
2022-11-16T16:52:15.754Z,1.80
2022-11-16T16:54:46.741Z,2.00
2022-11-16T16:57:16.123Z,1.97
2022-11-16T16:59:45.503Z,1.70
2022-11-16T17:02:16.172Z,2.07
2022-11-16T17:04:48.455Z,1.90
2022-11-16T17:07:18.352Z,1.97
2022-11-16T17:09:46.575Z,1.60
2022-11-16T17:12:15.138Z,2.03
2022-11-16T17:14:51.322Z,2.00
2022-11-16T17:17:23.504Z,1.50
2022-11-16T17:19:51.628Z,1.97
2022-11-16T17:22:20.439Z,2.07
2022-11-16T17:24:49.347Z,2.40
2022-11-16T17:27:17.526Z,1.90
2022-11-16T17:29:45.706Z,1.77
2022-11-16T17:32:14.108Z,2.00
2022-11-16T17:34:43.769Z,2.20
2022-11-16T17:37:13.224Z,1.90
2022-11-16T17:39:41.368Z,2.10
2022-11-16T17:42:12.797Z,2.40
2022-11-16T17:44:41.204Z,2.23
2022-11-16T17:47:09.965Z,2.00
2022-11-16T17:49:37.998Z,2.10
2022-11-16T17:52:08.086Z,2.20
2022-11-16T17:54:50.644Z,2.73
2022-11-16T17:57:19.902Z,2.20
2022-11-16T17:59:53.047Z,2.20
2022-11-16T18:02:25.201Z,1.70
2022-11-16T18:05:00.012Z,1.97
2022-11-16T18:07:35.549Z,2.00
2022-11-16T18:10:19.563Z,2.30
2022-11-16T18:13:02.489Z,2.23
2022-11-16T18:15:51.427Z,2.37
2022-11-16T18:21:47.153Z,2.40
2022-11-16T18:24:16.986Z,2.20
2022-11-16T18:26:45.720Z,2.20
2022-11-16T18:29:17.668Z,2.53
2022-11-16T18:31:48.879Z,2.00
2022-11-16T18:34:20.067Z,2.30
2022-11-16T18:36:50.978Z,2.40
2022-11-16T18:39:21.264Z,2.37
2022-11-16T18:41:55.351Z,2.13
2022-11-16T18:44:25.962Z,2.27
2022-11-16T18:46:55.009Z,2.00
2022-11-16T18:49:23.757Z,2.13
2022-11-16T18:51:52.372Z,2.27
2022-11-16T18:54:22.423Z,2.57
2022-11-16T18:56:52.454Z,2.37
2022-11-16T18:59:20.601Z,2.33
2022-11-16T19:01:50.516Z,2.27
2022-11-16T19:04:19.144Z,2.90
2022-11-16T19:06:47.958Z,2.50
2022-11-16T19:09:16.333Z,2.43
2022-11-16T19:11:46.109Z,2.97
2022-11-16T19:14:17.472Z,2.40
2022-11-16T19:16:53.988Z,2.60
2022-11-16T19:19:30.452Z,2.33
2022-11-16T19:22:02.257Z,2.77
2022-11-16T19:24:30.957Z,3.13
2022-11-16T19:27:05.831Z,2.30
2022-11-16T19:29:34.709Z,2.30
2022-11-16T19:32:06.766Z,2.27
2022-11-16T19:34:35.602Z,2.47
2022-11-16T19:37:04.195Z,2.73
2022-11-16T19:39:33.021Z,2.40
2022-11-16T19:42:03.910Z,2.40
2022-11-16T19:44:32.393Z,2.50
2022-11-16T19:47:02.263Z,2.57
2022-11-16T19:49:31.094Z,2.80
2022-11-16T19:52:00.445Z,2.50
2022-11-16T19:54:29.754Z,2.57
2022-11-16T19:57:00.366Z,2.37
2022-11-16T19:59:30.154Z,2.30
2022-11-16T20:01:58.875Z,2.67
2022-11-16T20:04:32.833Z,2.77
2022-11-16T20:07:03.188Z,2.60
2022-11-16T20:09:32.136Z,2.67
2022-11-16T20:12:00.663Z,2.90
2022-11-16T20:14:32.034Z,2.33
2022-11-16T20:17:01.238Z,2.60
2022-11-16T20:19:29.582Z,2.97
2022-11-16T20:21:59.979Z,2.77
2022-11-16T20:24:28.621Z,2.93
2022-11-16T20:26:56.815Z,3.20
2022-11-16T20:29:25.782Z,2.97
2022-11-16T20:31:55.527Z,2.63
2022-11-16T20:34:24.456Z,3.10
2022-11-16T20:36:53.856Z,3.13
2022-11-16T20:39:23.523Z,3.00
2022-11-16T20:41:52.223Z,3.20
2022-11-16T20:44:22.297Z,2.80
2022-11-16T20:46:52.551Z,2.97
2022-11-16T20:49:22.509Z,2.77
2022-11-16T20:51:51.881Z,2.87
2022-11-16T20:54:21.575Z,2.93
2022-11-16T20:56:51.018Z,3.17
2022-11-16T20:59:19.731Z,2.53
2022-11-16T21:01:49.736Z,2.80
2022-11-16T21:04:21.304Z,3.00
2022-11-16T21:06:51.692Z,2.50
2022-11-16T21:09:23.311Z,2.23
2022-11-16T21:12:11.951Z,2.00
2022-11-16T21:14:40.128Z,2.23
2022-11-16T21:17:09.056Z,2.50
2022-11-16T21:19:37.826Z,2.30
2022-11-16T21:22:08.765Z,2.83
2022-11-16T21:24:37.695Z,2.40
2022-11-16T21:27:06.121Z,2.97
2022-11-16T21:29:36.237Z,3.43
2022-11-16T21:32:05.196Z,2.70
2022-11-16T21:34:39.806Z,3.23
2022-11-16T21:37:10.533Z,3.10
2022-11-16T21:39:39.078Z,2.97
2022-11-16T21:42:07.989Z,2.83
2022-11-16T21:45:35.470Z,2.50
2022-11-16T21:48:07.313Z,2.30
2022-11-16T21:50:36.508Z,2.70
2022-11-16T21:53:07.125Z,2.80
2022-11-16T21:55:36.331Z,2.37
2022-11-16T21:58:04.742Z,2.33
2022-11-16T22:00:33.074Z,2.10
2022-11-16T22:03:01.316Z,2.07
2022-11-16T22:05:46.861Z,2.00
2022-11-16T22:08:16.599Z,1.77
2022-11-16T22:10:44.981Z,1.90
2022-11-16T22:13:13.325Z,2.20
2022-11-16T22:15:42.891Z,2.43
2022-11-16T22:18:11.085Z,2.17
2022-11-16T22:20:39.190Z,2.40
2022-11-16T22:23:07.407Z,2.00
2022-11-16T22:25:37.760Z,1.80
2022-11-16T22:28:20.109Z,1.90
2022-11-16T22:30:51.940Z,2.43
2022-11-16T22:33:20.689Z,1.87
2022-11-16T22:35:48.780Z,2.27
2022-11-16T22:38:16.851Z,2.10
2022-11-16T22:40:51.905Z,2.23
2022-11-16T22:43:20.580Z,2.00
2022-11-16T22:45:48.704Z,2.37
2022-11-16T22:48:17.113Z,2.30
2022-11-16T22:50:45.271Z,2.17
2022-11-16T22:53:13.499Z,2.10
2022-11-16T22:55:41.613Z,2.13
2022-11-16T22:58:11.223Z,2.10
2022-11-16T23:00:42.254Z,2.20
2022-11-16T23:03:10.866Z,2.03
2022-11-16T23:05:39.024Z,2.77
2022-11-16T23:08:08.565Z,2.20
2022-11-16T23:11:04.876Z,1.63
2022-11-16T23:13:52.113Z,2.20
2022-11-16T23:16:21.298Z,2.47
2022-11-16T23:18:49.472Z,2.00
2022-11-16T23:21:35.100Z,1.80
2022-11-16T23:24:19.725Z,2.40
2022-11-16T23:27:05.236Z,2.30
2022-11-16T23:29:34.969Z,2.33
2022-11-16T23:32:03.088Z,1.90
2022-11-16T23:34:31.187Z,2.10
2022-11-16T23:37:03.304Z,1.90
2022-11-16T23:39:31.488Z,1.97
2022-11-16T23:42:16.889Z,2.50
2022-11-16T23:44:46.572Z,1.97
2022-11-16T23:47:14.677Z,2.20
2022-11-16T23:49:42.870Z,2.10
2022-11-16T23:52:11.329Z,1.90
2022-11-16T23:54:39.438Z,2.67
2022-11-16T23:57:07.735Z,1.80
2022-11-16T23:59:35.992Z,1.90
